sensor_id;sensor_type;location;lat;lon;timestamp;pressure;altitude;pressure_sealevel;temperature;humidity
42771;BME280;28426;42.872;25.314;2023-02-28T00:00:39;97624.09;;;4.52;99.36
42771;BME280;28426;42.872;25.314;2023-02-28T00:03:10;97609.47;;;4.48;96.76
42771;BME280;28426;42.872;25.314;2023-02-28T00:05:41;97619.34;;;4.46;99.75
42771;BME280;28426;42.872;25.314;2023-02-28T00:08:14;97614.34;;;4.53;99.90
42771;BME280;28426;42.872;25.314;2023-02-28T00:10:45;97621.59;;;4.51;97.68
42771;BME280;28426;42.872;25.314;2023-02-28T00:13:15;97619.13;;;4.59;100.00
42771;BME280;28426;42.872;25.314;2023-02-28T00:15:46;97629.41;;;4.62;99.39
42771;BME280;28426;42.872;25.314;2023-02-28T00:18:17;97622.59;;;4.60;97.29
42771;BME280;28426;42.872;25.314;2023-02-28T00:20:47;97626.88;;;4.51;95.33
42771;BME280;28426;42.872;25.314;2023-02-28T00:23:21;97636.00;;;4.37;94.09
42771;BME280;28426;42.872;25.314;2023-02-28T00:25:52;97630.19;;;4.43;99.90
42771;BME280;28426;42.872;25.314;2023-02-28T00:28:22;97633.28;;;4.48;100.00
42771;BME280;28426;42.872;25.314;2023-02-28T00:30:53;97630.81;;;4.56;100.00
42771;BME280;28426;42.872;25.314;2023-02-28T00:33:24;97619.94;;;4.60;99.88
42771;BME280;28426;42.872;25.314;2023-02-28T00:36:05;97618.41;;;4.57;97.25
42771;BME280;28426;42.872;25.314;2023-02-28T00:38:39;97638.69;;;4.47;95.38
42771;BME280;28426;42.872;25.314;2023-02-28T00:41:10;97641.19;;;4.48;100.00
42771;BME280;28426;42.872;25.314;2023-02-28T00:43:41;97629.38;;;4.52;100.00
42771;BME280;28426;42.872;25.314;2023-02-28T00:46:12;97628.59;;;4.62;100.00
42771;BME280;28426;42.872;25.314;2023-02-28T00:48:42;97629.88;;;4.67;100.00
42771;BME280;28426;42.872;25.314;2023-02-28T00:51:14;97630.00;;;4.66;98.86
42771;BME280;28426;42.872;25.314;2023-02-28T00:53:47;97635.25;;;4.56;96.28
42771;BME280;28426;42.872;25.314;2023-02-28T00:56:18;97624.06;;;4.42;95.28
42771;BME280;28426;42.872;25.314;2023-02-28T00:58:49;97613.91;;;4.48;100.00
42771;BME280;28426;42.872;25.314;2023-02-28T01:01:19;97613.53;;;4.52;99.88
42771;BME280;28426;42.872;25.314;2023-02-28T01:03:50;97605.44;;;4.44;98.02
42771;BME280;28426;42.872;25.314;2023-02-28T01:06:21;97604.56;;;4.34;96.51
42771;BME280;28426;42.872;25.314;2023-02-28T01:08:54;97602.06;;;4.42;100.00
42771;BME280;28426;42.872;25.314;2023-02-28T01:11:25;97597.25;;;4.47;100.00
42771;BME280;28426;42.872;25.314;2023-02-28T01:13:57;97591.16;;;4.56;100.00
42771;BME280;28426;42.872;25.314;2023-02-28T01:16:28;97571.63;;;4.48;100.00
42771;BME280;28426;42.872;25.314;2023-02-28T01:18:58;97586.25;;;4.52;98.99
42771;BME280;28426;42.872;25.314;2023-02-28T01:21:29;97602.34;;;4.39;96.97
42771;BME280;28426;42.872;25.314;2023-02-28T01:24:04;97601.88;;;4.24;96.30
42771;BME280;28426;42.872;25.314;2023-02-28T01:26:37;97599.97;;;4.36;100.00
42771;BME280;28426;42.872;25.314;2023-02-28T01:29:08;97599.44;;;4.42;100.00
42771;BME280;28426;42.872;25.314;2023-02-28T01:31:38;97579.00;;;4.44;100.00
42771;BME280;28426;42.872;25.314;2023-02-28T01:34:09;97597.13;;;4.58;100.00
42771;BME280;28426;42.872;25.314;2023-02-28T01:36:39;97596.81;;;4.52;99.55
42771;BME280;28426;42.872;25.314;2023-02-28T01:39:13;97598.06;;;4.38;97.53
42771;BME280;28426;42.872;25.314;2023-02-28T01:41:44;97599.53;;;4.30;100.00
42771;BME280;28426;42.872;25.314;2023-02-28T01:47:15;97612.69;;;4.52;100.00
42771;BME280;28426;42.872;25.314;2023-02-28T01:49:46;97599.63;;;4.60;100.00
42771;BME280;28426;42.872;25.314;2023-02-28T01:52:19;97603.25;;;4.59;100.00
42771;BME280;28426;42.872;25.314;2023-02-28T01:54:58;97603.22;;;4.49;98.59
42771;BME280;28426;42.872;25.314;2023-02-28T01:57:34;97607.34;;;4.42;100.00
42771;BME280;28426;42.872;25.314;2023-02-28T02:00:08;97622.28;;;4.53;100.00
42771;BME280;28426;42.872;25.314;2023-02-28T02:02:47;97628.53;;;4.52;100.00
42771;BME280;28426;42.872;25.314;2023-02-28T02:05:20;97634.63;;;4.42;98.41
42771;BME280;28426;42.872;25.314;2023-02-28T02:07:54;97624.41;;;4.28;97.61
42771;BME280;28426;42.872;25.314;2023-02-28T02:10:31;97627.94;;;4.38;100.00
42771;BME280;28426;42.872;25.314;2023-02-28T02:13:18;97638.81;;;4.45;100.00
42771;BME280;28426;42.872;25.314;2023-02-28T02:15:59;97643.88;;;4.58;100.00
42771;BME280;28426;42.872;25.314;2023-02-28T02:18:37;97660.31;;;4.62;100.00
42771;BME280;28426;42.872;25.314;2023-02-28T02:21:36;97658.34;;;4.54;99.60
42771;BME280;28426;42.872;25.314;2023-02-28T02:24:33;97668.38;;;4.60;100.00
42771;BME280;28426;42.872;25.314;2023-02-28T02:27:33;97657.53;;;4.63;100.00
42771;BME280;28426;42.872;25.314;2023-02-28T02:30:31;97661.91;;;4.53;98.61
42771;BME280;28426;42.872;25.314;2023-02-28T02:33:26;97668.78;;;4.34;96.73
42771;BME280;28426;42.872;25.314;2023-02-28T02:36:13;97670.94;;;4.40;100.00
42771;BME280;28426;42.872;25.314;2023-02-28T02:38:50;97670.53;;;4.45;100.00
42771;BME280;28426;42.872;25.314;2023-02-28T02:41:24;97667.69;;;4.37;99.73
42771;BME280;28426;42.872;25.314;2023-02-28T02:44:02;97679.16;;;4.47;100.00
42771;BME280;28426;42.872;25.314;2023-02-28T02:46:39;97677.09;;;4.51;100.00
42771;BME280;28426;42.872;25.314;2023-02-28T02:49:15;97675.00;;;4.44;99.44
42771;BME280;28426;42.872;25.314;2023-02-28T02:51:52;97680.59;;;4.30;97.55
42771;BME280;28426;42.872;25.314;2023-02-28T02:54:27;97678.38;;;4.25;100.00
42771;BME280;28426;42.872;25.314;2023-02-28T02:57:01;97673.81;;;4.37;100.00
42771;BME280;28426;42.872;25.314;2023-02-28T02:59:36;97672.34;;;4.44;100.00
42771;BME280;28426;42.872;25.314;2023-02-28T03:02:11;97668.31;;;4.50;100.00
42771;BME280;28426;42.872;25.314;2023-02-28T03:04:45;97671.09;;;4.49;100.00
42771;BME280;28426;42.872;25.314;2023-02-28T03:07:19;97678.00;;;4.40;98.86
42771;BME280;28426;42.872;25.314;2023-02-28T03:09:51;97679.34;;;4.24;97.78
42771;BME280;28426;42.872;25.314;2023-02-28T03:12:24;97679.91;;;4.28;100.00
42771;BME280;28426;42.872;25.314;2023-02-28T03:15:05;97677.31;;;4.38;100.00
42771;BME280;28426;42.872;25.314;2023-02-28T03:17:49;97680.84;;;4.48;100.00
42771;BME280;28426;42.872;25.314;2023-02-28T03:20:35;97679.31;;;4.55;100.00
42771;BME280;28426;42.872;25.314;2023-02-28T03:23:18;97658.72;;;4.49;100.00
42771;BME280;28426;42.872;25.314;2023-02-28T03:25:56;97650.31;;;4.34;98.44
42771;BME280;28426;42.872;25.314;2023-02-28T03:28:34;97653.47;;;4.28;100.00
42771;BME280;28426;42.872;25.314;2023-02-28T03:31:10;97647.66;;;4.34;100.00
42771;BME280;28426;42.872;25.314;2023-02-28T03:33:43;97638.91;;;4.34;100.00
42771;BME280;28426;42.872;25.314;2023-02-28T03:36:25;97657.41;;;4.34;100.00
42771;BME280;28426;42.872;25.314;2023-02-28T03:39:02;97646.44;;;4.38;100.00
42771;BME280;28426;42.872;25.314;2023-02-28T03:41:40;97652.13;;;4.34;100.00
42771;BME280;28426;42.872;25.314;2023-02-28T03:44:16;97653.16;;;4.21;99.29
42771;BME280;28426;42.872;25.314;2023-02-28T03:46:52;97649.06;;;4.07;98.56
42771;BME280;28426;42.872;25.314;2023-02-28T03:49:27;97652.00;;;4.14;100.00
42771;BME280;28426;42.872;25.314;2023-02-28T03:52:02;97655.81;;;4.21;100.00
42771;BME280;28426;42.872;25.314;2023-02-28T03:54:41;97655.03;;;4.30;100.00
42771;BME280;28426;42.872;25.314;2023-02-28T03:57:20;97651.28;;;4.33;100.00
42771;BME280;28426;42.872;25.314;2023-02-28T03:59:56;97650.84;;;4.28;100.00
42771;BME280;28426;42.872;25.314;2023-02-28T04:02:39;97666.63;;;4.18;99.60
42771;BME280;28426;42.872;25.314;2023-02-28T04:05:10;97666.72;;;4.07;100.00
42771;BME280;28426;42.872;25.314;2023-02-28T04:07:40;97664.72;;;4.20;100.00
42771;BME280;28426;42.872;25.314;2023-02-28T04:10:14;97661.53;;;4.26;100.00
42771;BME280;28426;42.872;25.314;2023-02-28T04:12:45;97667.69;;;4.37;100.00
42771;BME280;28426;42.872;25.314;2023-02-28T04:15:15;97667.69;;;4.37;100.00
42771;BME280;28426;42.872;25.314;2023-02-28T04:17:50;97665.47;;;4.32;100.00
42771;BME280;28426;42.872;25.314;2023-02-28T04:20:20;97664.72;;;4.20;100.00
42771;BME280;28426;42.872;25.314;2023-02-28T04:22:51;97669.69;;;4.13;100.00
42771;BME280;28426;42.872;25.314;2023-02-28T04:25:24;97665.16;;;4.25;100.00
42771;BME280;28426;42.872;25.314;2023-02-28T04:27:54;97665.34;;;4.34;100.00
42771;BME280;28426;42.872;25.314;2023-02-28T04:30:25;97667.06;;;4.44;100.00
42771;BME280;28426;42.872;25.314;2023-02-28T04:32:56;97670.41;;;4.47;100.00
42771;BME280;28426;42.872;25.314;2023-02-28T04:35:27;97661.47;;;4.38;100.00
42771;BME280;28426;42.872;25.314;2023-02-28T04:37:58;97672.34;;;4.23;99.23
42771;BME280;28426;42.872;25.314;2023-02-28T04:40:31;97656.00;;;4.29;100.00
42771;BME280;28426;42.872;25.314;2023-02-28T04:43:01;97662.28;;;4.38;100.00
42771;BME280;28426;42.872;25.314;2023-02-28T04:45:32;97660.88;;;4.34;100.00
42771;BME280;28426;42.872;25.314;2023-02-28T04:48:03;97662.63;;;4.24;99.46
42771;BME280;28426;42.872;25.314;2023-02-28T04:50:33;97662.94;;;4.30;100.00
42771;BME280;28426;42.872;25.314;2023-02-28T04:53:04;97663.13;;;4.39;100.00
42771;BME280;28426;42.872;25.314;2023-02-28T04:55:37;97668.53;;;4.37;100.00
42771;BME280;28426;42.872;25.314;2023-02-28T04:58:08;97667.50;;;4.28;99.37
42771;BME280;28426;42.872;25.314;2023-02-28T05:00:39;97667.97;;;4.34;100.00
42771;BME280;28426;42.872;25.314;2023-02-28T05:03:10;97669.84;;;4.43;100.00
42771;BME280;28426;42.872;25.314;2023-02-28T05:05:40;97668.28;;;4.40;100.00
42771;BME280;28426;42.872;25.314;2023-02-28T05:08:11;97665.25;;;4.45;100.00
42771;BME280;28426;42.872;25.314;2023-02-28T05:10:45;97665.16;;;4.56;100.00
42771;BME280;28426;42.872;25.314;2023-02-28T05:13:15;97661.09;;;4.52;100.00
42771;BME280;28426;42.872;25.314;2023-02-28T05:15:46;97664.53;;;4.43;99.56
42771;BME280;28426;42.872;25.314;2023-02-28T05:18:17;97674.44;;;4.51;100.00
42771;BME280;28426;42.872;25.314;2023-02-28T05:20:47;97671.25;;;4.57;100.00
42771;BME280;28426;42.872;25.314;2023-02-28T05:23:20;97668.94;;;4.64;100.00
42771;BME280;28426;42.872;25.314;2023-02-28T05:25:55;97658.34;;;4.64;100.00
42771;BME280;28426;42.872;25.314;2023-02-28T05:28:26;97672.03;;;4.79;100.00
42771;BME280;28426;42.872;25.314;2023-02-28T05:30:56;97677.63;;;4.86;100.00
42771;BME280;28426;42.872;25.314;2023-02-28T05:33:27;97672.78;;;4.91;100.00
42771;BME280;28426;42.872;25.314;2023-02-28T05:35:57;97686.28;;;4.97;100.00
42771;BME280;28426;42.872;25.314;2023-02-28T05:38:29;97683.94;;;5.04;100.00
42771;BME280;28426;42.872;25.314;2023-02-28T05:41:05;97689.53;;;5.11;100.00
42771;BME280;28426;42.872;25.314;2023-02-28T05:43:36;97693.31;;;5.18;100.00
42771;BME280;28426;42.872;25.314;2023-02-28T05:46:09;97691.09;;;5.23;100.00
42771;BME280;28426;42.872;25.314;2023-02-28T05:48:41;97688.88;;;5.29;100.00
42771;BME280;28426;42.872;25.314;2023-02-28T05:51:12;97687.50;;;5.34;100.00
42771;BME280;28426;42.872;25.314;2023-02-28T05:53:42;97692.22;;;5.41;100.00
42771;BME280;28426;42.872;25.314;2023-02-28T05:56:16;97692.66;;;5.46;100.00
42771;BME280;28426;42.872;25.314;2023-02-28T05:58:46;97699.22;;;5.52;100.00
42771;BME280;28426;42.872;25.314;2023-02-28T06:01:24;97701.44;;;5.56;100.00
42771;BME280;28426;42.872;25.314;2023-02-28T06:03:57;97707.31;;;5.60;99.86
42771;BME280;28426;42.872;25.314;2023-02-28T06:06:29;97706.72;;;5.66;99.74
42771;BME280;28426;42.872;25.314;2023-02-28T06:09:04;97710.94;;;5.69;99.36
42771;BME280;28426;42.872;25.314;2023-02-28T06:11:37;97719.31;;;5.74;99.11
42771;BME280;28426;42.872;25.314;2023-02-28T06:14:14;97717.34;;;5.76;98.77
42771;BME280;28426;42.872;25.314;2023-02-28T06:16:45;97715.41;;;5.78;98.70
42771;BME280;28426;42.872;25.314;2023-02-28T06:19:16;97720.41;;;5.81;98.40
42771;BME280;28426;42.872;25.314;2023-02-28T06:21:48;97722.66;;;5.86;97.95
42771;BME280;28426;42.872;25.314;2023-02-28T06:24:20;97726.81;;;5.88;97.95
42771;BME280;28426;42.872;25.314;2023-02-28T06:26:53;97724.84;;;5.91;97.54
42771;BME280;28426;42.872;25.314;2023-02-28T06:29:24;97729.34;;;5.90;97.23
42771;BME280;28426;42.872;25.314;2023-02-28T06:31:55;97733.50;;;5.93;96.99
42771;BME280;28426;42.872;25.314;2023-02-28T06:34:26;97721.94;;;5.94;96.76
42771;BME280;28426;42.872;25.314;2023-02-28T06:36:56;97735.91;;;5.96;96.72
42771;BME280;28426;42.872;25.314;2023-02-28T06:39:29;97739.22;;;5.98;96.38
42771;BME280;28426;42.872;25.314;2023-02-28T06:42:02;97743.53;;;5.99;96.23
42771;BME280;28426;42.872;25.314;2023-02-28T06:44:33;97740.91;;;5.99;95.80
42771;BME280;28426;42.872;25.314;2023-02-28T06:47:07;97744.66;;;5.96;95.42
42771;BME280;28426;42.872;25.314;2023-02-28T06:49:37;97744.13;;;5.93;95.08
42771;BME280;28426;42.872;25.314;2023-02-28T06:52:07;97745.22;;;5.90;95.01
42771;BME280;28426;42.872;25.314;2023-02-28T06:54:39;97734.06;;;5.86;94.74
42771;BME280;28426;42.872;25.314;2023-02-28T06:57:12;97733.25;;;5.86;95.14
42771;BME280;28426;42.872;25.314;2023-02-28T06:59:42;97735.75;;;5.87;95.31
42771;BME280;28426;42.872;25.314;2023-02-28T07:02:13;97727.66;;;5.89;95.09
42771;BME280;28426;42.872;25.314;2023-02-28T07:04:44;97727.38;;;5.92;95.32
42771;BME280;28426;42.872;25.314;2023-02-28T07:07:14;97735.91;;;5.96;95.61
42771;BME280;28426;42.872;25.314;2023-02-28T07:09:45;97734.91;;;5.97;95.20
42771;BME280;28426;42.872;25.314;2023-02-28T07:12:18;97725.31;;;5.96;95.14
42771;BME280;28426;42.872;25.314;2023-02-28T07:14:49;97731.00;;;6.01;95.43
42771;BME280;28426;42.872;25.314;2023-02-28T07:17:19;97730.75;;;6.04;95.41
42771;BME280;28426;42.872;25.314;2023-02-28T07:19:50;97730.47;;;6.07;94.89
42771;BME280;28426;42.872;25.314;2023-02-28T07:22:21;97722.38;;;6.09;95.03
42771;BME280;28426;42.872;25.314;2023-02-28T07:24:52;97732.72;;;6.12;94.88
42771;BME280;28426;42.872;25.314;2023-02-28T07:27:25;97736.88;;;6.14;94.71
42771;BME280;28426;42.872;25.314;2023-02-28T07:29:56;97736.59;;;6.18;95.08
42771;BME280;28426;42.872;25.314;2023-02-28T07:32:29;97732.69;;;6.22;94.74
42771;BME280;28426;42.872;25.314;2023-02-28T07:35:00;97734.38;;;6.23;94.65
42771;BME280;28426;42.872;25.314;2023-02-28T07:37:31;97734.06;;;6.26;94.15
42771;BME280;28426;42.872;25.314;2023-02-28T07:40:05;97747.19;;;6.27;94.12
42771;BME280;28426;42.872;25.314;2023-02-28T07:42:40;97741.03;;;6.27;93.80
42771;BME280;28426;42.872;25.314;2023-02-28T07:45:16;97749.16;;;6.25;93.43
42771;BME280;28426;42.872;25.314;2023-02-28T07:47:47;97743.28;;;6.22;93.35
42771;BME280;28426;42.872;25.314;2023-02-28T07:50:17;97754.88;;;6.21;92.79
42771;BME280;28426;42.872;25.314;2023-02-28T07:52:48;97755.97;;;6.18;93.00
42771;BME280;28426;42.872;25.314;2023-02-28T07:55:18;97760.75;;;6.14;93.13
42771;BME280;28426;42.872;25.314;2023-02-28T07:57:52;97763.09;;;6.18;93.41
42771;BME280;28426;42.872;25.314;2023-02-28T08:00:23;97757.09;;;6.15;93.09
42771;BME280;28426;42.872;25.314;2023-02-28T08:02:54;97759.63;;;6.17;93.25
42771;BME280;28426;42.872;25.314;2023-02-28T08:05:24;97766.59;;;6.18;93.44
42771;BME280;28426;42.872;25.314;2023-02-28T08:07:55;97761.16;;;6.20;93.22
42771;BME280;28426;42.872;25.314;2023-02-28T08:10:25;97755.56;;;6.23;93.68
42771;BME280;28426;42.872;25.314;2023-02-28T08:12:59;97761.28;;;6.28;93.95
42771;BME280;28426;42.872;25.314;2023-02-28T08:15:29;97761.69;;;6.33;93.69
42771;BME280;28426;42.872;25.314;2023-02-28T08:18:00;97767.41;;;6.38;93.74
42771;BME280;28426;42.872;25.314;2023-02-28T08:20:30;97756.53;;;6.41;93.60
42771;BME280;28426;42.872;25.314;2023-02-28T08:23:01;97751.63;;;6.47;93.55
42771;BME280;28426;42.872;25.314;2023-02-28T08:25:32;97756.66;;;6.50;93.38
42771;BME280;28426;42.872;25.314;2023-02-28T08:28:05;97759.97;;;6.52;92.85
42771;BME280;28426;42.872;25.314;2023-02-28T08:30:36;97758.00;;;6.54;92.67
42771;BME280;28426;42.872;25.314;2023-02-28T08:33:08;97761.38;;;6.56;92.76
42771;BME280;28426;42.872;25.314;2023-02-28T08:35:38;97763.03;;;6.57;92.86
42771;BME280;28426;42.872;25.314;2023-02-28T08:38:09;97761.91;;;6.60;92.42
42771;BME280;28426;42.872;25.314;2023-02-28T08:40:40;97758.28;;;6.61;92.42
42771;BME280;28426;42.872;25.314;2023-02-28T08:43:13;97767.06;;;6.61;92.36
42771;BME280;28426;42.872;25.314;2023-02-28T08:45:43;97767.78;;;6.63;92.31
42771;BME280;28426;42.872;25.314;2023-02-28T08:48:14;97764.97;;;6.65;92.17
42771;BME280;28426;42.872;25.314;2023-02-28T08:50:54;97765.94;;;6.64;92.28
42771;BME280;28426;42.872;25.314;2023-02-28T08:53:34;97765.13;;;6.63;91.72
42771;BME280;28426;42.872;25.314;2023-02-28T08:56:06;97761.91;;;6.60;91.77
42771;BME280;28426;42.872;25.314;2023-02-28T08:58:40;97768.63;;;6.54;91.72
42771;BME280;28426;42.872;25.314;2023-02-28T09:01:13;97770.88;;;6.49;91.48
42771;BME280;28426;42.872;25.314;2023-02-28T09:03:45;97781.47;;;6.49;91.66
42771;BME280;28426;42.872;25.314;2023-02-28T09:06:18;97781.59;;;6.47;91.97
42771;BME280;28426;42.872;25.314;2023-02-28T09:08:49;97788.75;;;6.47;91.81
42771;BME280;28426;42.872;25.314;2023-02-28T09:11:20;97792.38;;;6.46;91.87
42771;BME280;28426;42.872;25.314;2023-02-28T09:13:53;97787.22;;;6.44;92.04
42771;BME280;28426;42.872;25.314;2023-02-28T09:16:24;97785.53;;;6.43;91.83
42771;BME280;28426;42.872;25.314;2023-02-28T09:18:55;97789.28;;;6.40;92.03
42771;BME280;28426;42.872;25.314;2023-02-28T09:21:26;97794.59;;;6.40;91.83
42771;BME280;28426;42.872;25.314;2023-02-28T09:23:57;97797.25;;;6.40;91.95
42771;BME280;28426;42.872;25.314;2023-02-28T09:26:28;97800.75;;;6.41;92.28
42771;BME280;28426;42.872;25.314;2023-02-28T09:29:12;97800.59;;;6.43;92.05
42771;BME280;28426;42.872;25.314;2023-02-28T09:31:44;97801.28;;;6.45;92.23
42771;BME280;28426;42.872;25.314;2023-02-28T09:34:14;97799.63;;;6.44;92.17
42771;BME280;28426;42.872;25.314;2023-02-28T09:36:45;97798.63;;;6.45;92.48
42771;BME280;28426;42.872;25.314;2023-02-28T09:39:16;97808.28;;;6.46;92.00
42771;BME280;28426;42.872;25.314;2023-02-28T09:41:48;97793.91;;;6.48;92.12
42771;BME280;28426;42.872;25.314;2023-02-28T09:44:28;97798.22;;;6.49;92.46
42771;BME280;28426;42.872;25.314;2023-02-28T09:47:03;97806.03;;;6.51;92.13
42771;BME280;28426;42.872;25.314;2023-02-28T09:49:39;97802.69;;;6.49;92.03
42771;BME280;28426;42.872;25.314;2023-02-28T09:52:12;97809.94;;;6.47;92.02
42771;BME280;28426;42.872;25.314;2023-02-28T09:54:43;97793.50;;;6.43;91.46
42771;BME280;28426;42.872;25.314;2023-02-28T09:57:19;97787.63;;;6.39;91.58
42771;BME280;28426;42.872;25.314;2023-02-28T10:00:03;97785.28;;;6.36;91.81
42771;BME280;28426;42.872;25.314;2023-02-28T10:02:56;97787.22;;;6.34;92.04
42771;BME280;28426;42.872;25.314;2023-02-28T10:05:33;97785.81;;;6.30;91.77
42771;BME280;28426;42.872;25.314;2023-02-28T10:08:12;97781.78;;;6.26;91.56
42771;BME280;28426;42.872;25.314;2023-02-28T10:10:45;97785.41;;;6.25;91.80
42771;BME280;28426;42.872;25.314;2023-02-28T10:13:25;97783.75;;;6.24;91.62
42771;BME280;28426;42.872;25.314;2023-02-28T10:16:02;97781.09;;;6.24;91.89
42771;BME280;28426;42.872;25.314;2023-02-28T10:18:42;97780.09;;;6.25;92.01
42771;BME280;28426;42.872;25.314;2023-02-28T10:21:18;97777.31;;;6.26;92.07
42771;BME280;28426;42.872;25.314;2023-02-28T10:27:16;97774.09;;;6.33;92.12
42771;BME280;28426;42.872;25.314;2023-02-28T10:29:49;97775.94;;;6.32;91.64
42771;BME280;28426;42.872;25.314;2023-02-28T10:32:25;97776.59;;;6.34;91.67
42771;BME280;28426;42.872;25.314;2023-02-28T10:35:00;97775.94;;;6.32;91.55
42771;BME280;28426;42.872;25.314;2023-02-28T10:37:33;97773.56;;;6.29;91.29
42771;BME280;28426;42.872;25.314;2023-02-28T10:40:08;97773.56;;;6.29;90.99
42771;BME280;28426;42.872;25.314;2023-02-28T10:42:55;97778.31;;;6.25;91.00
42771;BME280;28426;42.872;25.314;2023-02-28T10:45:28;97780.97;;;6.25;91.00
42771;BME280;28426;42.872;25.314;2023-02-28T10:48:04;97776.59;;;6.24;91.08
42771;BME280;28426;42.872;25.314;2023-02-28T10:50:36;97773.81;;;6.26;91.41
42771;BME280;28426;42.872;25.314;2023-02-28T10:53:22;97753.91;;;6.12;90.91
42771;BME280;28426;42.872;25.314;2023-02-28T10:55:57;97772.56;;;6.20;91.11
42771;BME280;28426;42.872;25.314;2023-02-28T10:58:29;97759.47;;;6.19;91.24
42771;BME280;28426;42.872;25.314;2023-02-28T11:01:00;97750.69;;;6.18;91.15
42771;BME280;28426;42.872;25.314;2023-02-28T11:03:35;97749.84;;;6.18;91.22
42771;BME280;28426;42.872;25.314;2023-02-28T11:06:07;97747.19;;;6.18;91.09
42771;BME280;28426;42.872;25.314;2023-02-28T11:08:47;97752.47;;;6.18;91.41
42771;BME280;28426;42.872;25.314;2023-02-28T11:11:21;97739.53;;;6.14;91.34
42771;BME280;28426;42.872;25.314;2023-02-28T11:13:55;97743.41;;;6.20;91.07
42771;BME280;28426;42.872;25.314;2023-02-28T11:16:32;97743.28;;;6.22;91.12
42771;BME280;28426;42.872;25.314;2023-02-28T11:19:17;97740.75;;;6.20;91.23
42771;BME280;28426;42.872;25.314;2023-02-28T11:21:54;97748.56;;;6.22;91.00
42771;BME280;28426;42.872;25.314;2023-02-28T11:24:27;97744.97;;;6.23;90.80
42771;BME280;28426;42.872;25.314;2023-02-28T11:26:59;97753.75;;;6.23;90.85
42771;BME280;28426;42.872;25.314;2023-02-28T11:29:31;97755.56;;;6.23;90.93
42771;BME280;28426;42.872;25.314;2023-02-28T11:32:09;97745.94;;;6.22;90.66
42771;BME280;28426;42.872;25.314;2023-02-28T11:34:45;97737.97;;;6.22;90.83
42771;BME280;28426;42.872;25.314;2023-02-28T11:37:18;97737.97;;;6.22;90.80
42771;BME280;28426;42.872;25.314;2023-02-28T11:39:49;97736.16;;;6.22;90.51
42771;BME280;28426;42.872;25.314;2023-02-28T11:42:44;97739.66;;;6.23;90.50
42771;BME280;28426;42.872;25.314;2023-02-28T11:45:44;97724.72;;;6.22;90.72
42771;BME280;28426;42.872;25.314;2023-02-28T11:48:22;97722.91;;;6.22;90.68
42771;BME280;28426;42.872;25.314;2023-02-28T11:51:08;97729.06;;;6.23;90.50
42771;BME280;28426;42.872;25.314;2023-02-28T11:54:08;97723.91;;;6.21;90.03
42771;BME280;28426;42.872;25.314;2023-02-28T11:56:50;97721.25;;;6.21;90.25
42771;BME280;28426;42.872;25.314;2023-02-28T11:59:44;97717.06;;;6.19;90.47
42771;BME280;28426;42.872;25.314;2023-02-28T12:02:23;97722.91;;;6.22;90.11
42771;BME280;28426;42.872;25.314;2023-02-28T12:05:20;97724.03;;;6.20;90.10
42771;BME280;28426;42.872;25.314;2023-02-28T12:08:09;97736.59;;;6.18;89.73
42771;BME280;28426;42.872;25.314;2023-02-28T12:10:56;97727.94;;;6.15;89.54
42771;BME280;28426;42.872;25.314;2023-02-28T12:13:37;97725.44;;;6.14;89.86
42771;BME280;28426;42.872;25.314;2023-02-28T12:16:22;97724.59;;;6.13;89.96
42771;BME280;28426;42.872;25.314;2023-02-28T12:19:06;97724.59;;;6.13;90.07
42771;BME280;28426;42.872;25.314;2023-02-28T12:21:52;97729.06;;;6.13;89.64
42771;BME280;28426;42.872;25.314;2023-02-28T12:24:42;97734.25;;;6.14;90.11
42771;BME280;28426;42.872;25.314;2023-02-28T12:27:21;97729.88;;;6.13;90.04
42771;BME280;28426;42.872;25.314;2023-02-28T12:29:57;97733.53;;;6.12;89.58
42771;BME280;28426;42.872;25.314;2023-02-28T12:32:32;97722.09;;;6.12;89.81
42771;BME280;28426;42.872;25.314;2023-02-28T12:35:11;97715.97;;;6.11;90.02
42771;BME280;28426;42.872;25.314;2023-02-28T12:37:45;97722.94;;;6.12;89.75
42771;BME280;28426;42.872;25.314;2023-02-28T12:40:21;97714.16;;;6.12;90.12
42771;BME280;28426;42.872;25.314;2023-02-28T12:42:56;97722.09;;;6.12;89.99
42771;BME280;28426;42.872;25.314;2023-02-28T12:45:39;97720.28;;;6.12;89.74
42771;BME280;28426;42.872;25.314;2023-02-28T12:48:14;97723.91;;;6.11;89.80
42771;BME280;28426;42.872;25.314;2023-02-28T12:50:48;97728.53;;;6.09;89.84
42771;BME280;28426;42.872;25.314;2023-02-28T12:53:25;97731.00;;;6.11;89.88
42771;BME280;28426;42.872;25.314;2023-02-28T12:56:08;97735.50;;;6.10;90.05
42771;BME280;28426;42.872;25.314;2023-02-28T12:58:46;97735.50;;;6.10;90.22
42771;BME280;28426;42.872;25.314;2023-02-28T13:04:41;97739.66;;;6.13;90.25
42771;BME280;28426;42.872;25.314;2023-02-28T13:10:14;97729.06;;;6.13;90.05
42771;BME280;28426;42.872;25.314;2023-02-28T13:12:53;97728.22;;;6.12;89.97
42771;BME280;28426;42.872;25.314;2023-02-28T13:15:26;97731.00;;;6.11;89.94
42771;BME280;28426;42.872;25.314;2023-02-28T13:17:59;97728.53;;;6.09;89.80
42771;BME280;28426;42.872;25.314;2023-02-28T13:20:33;97721.53;;;6.08;89.95
42771;BME280;28426;42.872;25.314;2023-02-28T13:23:36;97719.03;;;6.07;89.90
42771;BME280;28426;42.872;25.314;2023-02-28T13:26:07;97720.84;;;6.06;89.56
42771;BME280;28426;42.872;25.314;2023-02-28T13:29:27;97725.44;;;6.04;89.63
42771;BME280;28426;42.872;25.314;2023-02-28T13:32:30;97724.00;;;6.00;89.52
42771;BME280;28426;42.872;25.314;2023-02-28T13:38:33;97731.56;;;5.95;89.69
42771;BME280;28426;42.872;25.314;2023-02-28T13:44:07;97730.16;;;5.91;90.09
42771;BME280;28426;42.872;25.314;2023-02-28T13:49:47;97730.47;;;5.87;90.15
42771;BME280;28426;42.872;25.314;2023-02-28T13:52:22;97724.19;;;5.88;90.50
42771;BME280;28426;42.872;25.314;2023-02-28T13:55:23;97725.16;;;5.87;90.33
42771;BME280;28426;42.872;25.314;2023-02-28T13:58:08;97729.06;;;5.83;89.84
42771;BME280;28426;42.872;25.314;2023-02-28T14:00:52;97732.97;;;5.79;90.07